Ariccia, Italy

3:51 AM CEST on September 01, 2015 (GMT +0200)
Ariccia - Galloro | | Change Station
CLOSE
Current Station
Personal Weather Station
Location: Ariccia, LAZIO
Elevation: 1601 ft
Nearby Weather Stations

Elev 1601 ft 41.72 °N, 12.68 °E | Updated 1 minute ago

Clear
Clear
70.7 °F
Feels Like 77 °F
N
1.0
Wind Variable Wind from ENE
Gusts 2.0 mph

Today
High -- | Low -- °F
--% Chance of Precip.
Yesterday
High -- | Low -- °F
Precip. -- in
6:34 AM 7:43 PM
Waning Gibbous, 92% visible
Pressure 29.98 in
Visibility -9999.0 miles
Clouds
Heat Index 77 °F
Dew Point 54 °F
Humidity 55%
Rainfall 0.00 in
Snow Depth Not available.
UV Not available.
Pollen Not available.
Air Quality Not available.
Flu Activity Not available.
METAR LIRA 010120Z 12003KT CAVOK 21/13 Q1015
Pressure 29.98 in
Visibility -9999.0 miles
Clouds
Heat Index 77 °F
Dew Point 54 °F
Humidity 55%
Rainfall 0.00 in
Snow Depth Not available.
UV Not available.
Pollen Not available.
Air Quality Not available.
Flu Activity Not available.
METAR LIRA 010120Z 12003KT CAVOK 21/13 Q1015

10-Day Weather Forecast

×

Almanac

Astronomy

Sep. 01, 2015 Rise Set
Actual Time
Civil Twilight
Nautical Twilight
Astronomical Twilight
Moon
Length of Visible Light
Length of Day
Tomorrow will be .
, % of the Moon is Illuminated

Today's Extremes

Country Highs Country Lows

Community

WunderPhotos

Upload Photos

1,851,427 photos uploaded!

WunderBlogs® & News

Nearby

Air Quality

  Air Quality AQ Index Pollutant
Not available.

Snow Depth

Station Depth Elevation

Earthquake Activity

City Distance Mag. Time & Date
Minimum magnitude displayed is 2.5.

Coastal Water Temperatures

Place Temperature

Stations

Nearby Weather Stations

Station Location Temp. Windchill Dew Point Humidity Wind Precip. Elev Updated Type